createdAt,value
2017-08-07T00:01:26.443Z,7.73
2017-08-07T00:03:54.004Z,6.33
2017-08-07T00:06:22.266Z,5.93
2017-08-07T00:08:50.518Z,10.53
2017-08-07T00:11:18.782Z,8.10
2017-08-07T00:13:46.278Z,6.77
2017-08-07T00:16:14.542Z,7.43
2017-08-07T00:18:42.294Z,9.40
2017-08-07T00:21:09.784Z,7.90
2017-08-07T00:23:37.257Z,7.30
2017-08-07T00:26:04.917Z,10.33
2017-08-07T00:28:33.178Z,11.10
2017-08-07T00:31:01.434Z,7.00
2017-08-07T00:33:29.903Z,10.33
2017-08-07T00:35:58.139Z,8.77
2017-08-07T00:38:25.707Z,10.70
2017-08-07T00:40:54.170Z,7.97
2017-08-07T00:43:22.402Z,9.03
2017-08-07T00:45:49.974Z,9.53
2017-08-07T00:48:18.434Z,9.10
2017-08-07T00:50:46.705Z,8.80
2017-08-07T00:53:14.930Z,9.77
2017-08-07T00:55:42.602Z,9.67
2017-08-07T00:58:10.875Z,8.87
2017-08-07T01:00:38.414Z,10.90
2017-08-07T01:03:05.926Z,11.53
2017-08-07T01:05:33.498Z,9.47
2017-08-07T01:08:01.731Z,14.73
2017-08-07T01:10:29.194Z,9.83
2017-08-07T01:12:56.709Z,12.60
2017-08-07T01:15:24.182Z,10.40
2017-08-07T01:17:51.642Z,10.73
2017-08-07T01:20:19.143Z,12.87
2017-08-07T01:22:46.611Z,9.53
2017-08-07T01:25:14.078Z,12.00
2017-08-07T01:27:41.658Z,12.10
2017-08-07T01:30:09.914Z,11.77
2017-08-07T01:32:38.155Z,11.10
2017-08-07T01:35:05.647Z,12.97
2017-08-07T01:37:33.131Z,14.33
2017-08-07T01:40:00.609Z,14.40
2017-08-07T01:42:28.126Z,14.30
2017-08-07T01:44:55.594Z,14.93
2017-08-07T01:47:23.066Z,15.50
2017-08-07T01:49:50.578Z,15.20
2017-08-07T01:52:18.115Z,15.57
2017-08-07T01:54:46.375Z,14.43
2017-08-07T01:57:14.738Z,15.20
2017-08-07T01:59:42.998Z,15.47
2017-08-07T02:02:11.235Z,15.03
2017-08-07T02:04:38.762Z,20.93
2017-08-07T02:07:06.237Z,16.90
2017-08-07T02:09:34.502Z,16.70
2017-08-07T02:12:02.015Z,20.23
2017-08-07T02:14:29.500Z,15.23
2017-08-07T02:16:56.999Z,15.50
2017-08-07T02:19:24.506Z,19.60
2017-08-07T02:21:51.982Z,18.07
2017-08-07T02:24:19.517Z,18.10
2017-08-07T02:26:47.882Z,17.80
2017-08-07T02:29:16.143Z,18.97
2017-08-07T02:31:44.406Z,16.57
2017-08-07T02:34:12.149Z,17.30
2017-08-07T02:36:40.415Z,17.57
2017-08-07T02:39:08.775Z,16.37
2017-08-07T02:41:37.238Z,17.67
2017-08-07T02:44:05.480Z,17.63
2017-08-07T02:46:32.959Z,17.13
2017-08-07T02:49:00.542Z,21.40
2017-08-07T02:51:28.022Z,17.73
2017-08-07T02:53:56.290Z,18.43
2017-08-07T02:56:23.830Z,16.87
2017-08-07T02:58:52.066Z,18.07
2017-08-07T03:01:19.544Z,18.83
2017-08-07T03:03:47.074Z,19.93
2017-08-07T03:06:15.538Z,18.73
2017-08-07T03:08:43.778Z,18.77
2017-08-07T03:11:11.247Z,19.27
2017-08-07T03:13:38.750Z,18.10
2017-08-07T03:16:06.221Z,17.63
2017-08-07T03:18:33.714Z,17.93
2017-08-07T03:21:01.259Z,18.47
2017-08-07T03:23:28.735Z,17.93
2017-08-07T03:25:56.242Z,17.40
2017-08-07T03:28:23.783Z,18.63
2017-08-07T03:30:52.023Z,19.73
2017-08-07T03:33:19.587Z,18.50
2017-08-07T03:35:47.845Z,19.60
2017-08-07T03:38:16.210Z,19.50
2017-08-07T03:40:44.449Z,19.77
2017-08-07T03:43:12.010Z,19.53
2017-08-07T03:45:40.379Z,17.90
2017-08-07T03:48:08.635Z,18.63
2017-08-07T03:50:36.897Z,19.80
2017-08-07T03:53:05.358Z,19.23
2017-08-07T03:55:33.593Z,23.63
2017-08-07T03:58:01.166Z,20.50
2017-08-07T04:00:28.695Z,18.57
2017-08-07T04:02:56.249Z,22.07
2017-08-07T04:05:24.520Z,17.77
2017-08-07T04:07:52.058Z,18.07
2017-08-07T04:10:20.742Z,18.33
2017-08-07T04:12:49.214Z,18.33
2017-08-07T04:15:17.450Z,17.23
2017-08-07T04:17:45.015Z,17.20
2017-08-07T04:20:13.387Z,16.80
2017-08-07T04:22:40.930Z,17.60
2017-08-07T04:25:08.408Z,19.70
2017-08-07T04:27:36.011Z,14.80
2017-08-07T04:30:04.254Z,15.77
2017-08-07T04:32:32.511Z,15.10
2017-08-07T04:35:00.074Z,15.17
2017-08-07T04:37:28.339Z,15.33
2017-08-07T04:39:55.814Z,14.90
2017-08-07T04:42:23.522Z,14.50
2017-08-07T04:44:51.766Z,17.03
2017-08-07T04:47:19.250Z,14.37
2017-08-07T04:49:46.738Z,15.20
2017-08-07T04:52:14.214Z,14.63
2017-08-07T04:54:41.755Z,14.77
2017-08-07T04:57:09.990Z,13.40
2017-08-07T04:59:37.558Z,13.00
2017-08-07T05:02:05.918Z,13.03
2017-08-07T05:04:34.178Z,13.33
2017-08-07T05:07:02.419Z,15.53
2017-08-07T05:09:30.090Z,13.23
2017-08-07T05:11:57.554Z,11.97
2017-08-07T05:14:25.826Z,12.30
2017-08-07T05:16:54.297Z,12.53
2017-08-07T05:19:22.554Z,11.23
2017-08-07T05:21:50.819Z,12.00
2017-08-07T05:24:18.355Z,13.43
2017-08-07T05:26:46.614Z,11.83
2017-08-07T05:29:15.078Z,12.90
2017-08-07T05:31:43.338Z,10.40
2017-08-07T05:34:11.598Z,11.17
2017-08-07T05:36:40.066Z,10.57
2017-08-07T05:39:08.299Z,17.10
2017-08-07T05:41:35.786Z,12.87
2017-08-07T05:44:03.519Z,10.97
2017-08-07T05:46:31.160Z,11.93
2017-08-07T05:48:59.407Z,10.77
2017-08-07T05:51:27.166Z,9.63
2017-08-07T05:53:55.407Z,9.80
2017-08-07T05:56:22.883Z,9.20
2017-08-07T05:58:50.619Z,9.90
2017-08-07T06:01:18.877Z,10.13
2017-08-07T06:03:47.243Z,8.87
2017-08-07T06:06:15.603Z,13.47
2017-08-07T06:08:43.865Z,11.00
2017-08-07T06:11:12.103Z,9.07
2017-08-07T06:13:39.592Z,9.43
2017-08-07T06:16:07.298Z,9.80
2017-08-07T06:18:35.526Z,9.57
2017-08-07T06:21:03.007Z,9.07
2017-08-07T06:23:31.471Z,9.30
2017-08-07T06:25:59.017Z,8.93
2017-08-07T06:28:27.274Z,9.03
2017-08-07T06:30:55.734Z,8.57
2017-08-07T06:33:23.999Z,9.07
2017-08-07T06:35:52.230Z,9.07
2017-08-07T06:38:19.801Z,9.10
2017-08-07T06:40:48.035Z,9.27
2017-08-07T06:43:15.606Z,8.67
2017-08-07T06:45:43.966Z,9.07
2017-08-07T06:48:12.226Z,7.77
2017-08-07T06:50:39.699Z,8.37
2017-08-07T06:53:07.322Z,11.67
2017-08-07T06:55:34.785Z,7.60
2017-08-07T06:58:02.307Z,7.33
2017-08-07T07:00:30.734Z,9.60
2017-08-07T07:02:58.210Z,7.00
2017-08-07T07:05:26.471Z,7.10
2017-08-07T07:07:54.721Z,8.53
2017-08-07T07:10:22.986Z,8.97
2017-08-07T07:12:50.451Z,10.27
2017-08-07T07:15:18.106Z,6.10
2017-08-07T07:17:45.570Z,7.73
2017-08-07T07:20:13.043Z,7.20
2017-08-07T07:22:41.298Z,6.73
2017-08-07T07:25:09.530Z,10.40
2017-08-07T07:27:37.007Z,7.20
2017-08-07T07:30:05.261Z,8.00
2017-08-07T07:32:33.636Z,6.90
2017-08-07T07:35:02.000Z,7.93
2017-08-07T07:37:30.239Z,7.83
2017-08-07T07:39:57.894Z,8.10
2017-08-07T07:42:26.158Z,7.83
2017-08-07T07:44:54.422Z,7.13
2017-08-07T07:47:22.667Z,6.57
2017-08-07T07:49:50.223Z,8.50
2017-08-07T07:52:18.577Z,7.50
2017-08-07T07:54:46.811Z,7.27
2017-08-07T07:57:14.287Z,7.47
2017-08-07T07:59:42.643Z,7.10
2017-08-07T08:02:10.875Z,7.23
2017-08-07T08:04:38.346Z,7.10
2017-08-07T08:07:06.589Z,6.23
2017-08-07T08:09:34.059Z,5.57
2017-08-07T08:12:01.886Z,6.77
2017-08-07T08:14:30.123Z,7.83
2017-08-07T08:16:57.582Z,6.20
2017-08-07T08:19:25.142Z,6.60
2017-08-07T08:21:53.394Z,5.87
2017-08-07T08:24:21.658Z,4.83
2017-08-07T08:26:49.913Z,7.53
2017-08-07T08:29:18.379Z,4.80
2017-08-07T08:31:46.608Z,4.70
2017-08-07T08:34:14.113Z,8.77
2017-08-07T08:36:41.725Z,4.00
2017-08-07T08:39:10.065Z,4.73
2017-08-07T08:41:37.530Z,4.07
2017-08-07T08:44:05.997Z,4.47
2017-08-07T08:46:34.258Z,7.13
2017-08-07T08:49:02.490Z,3.93
2017-08-07T08:51:29.996Z,3.97
2017-08-07T08:53:57.458Z,4.10
2017-08-07T08:56:24.947Z,4.00
2017-08-07T08:58:53.279Z,5.67
2017-08-07T09:01:20.791Z,4.53
2017-08-07T09:03:48.250Z,7.53
2017-08-07T09:06:15.806Z,4.57
2017-08-07T09:08:43.380Z,3.47
2017-08-07T09:11:10.926Z,3.23
2017-08-07T09:13:38.403Z,3.20
2017-08-07T09:16:05.928Z,3.23
2017-08-07T09:18:33.434Z,3.60
2017-08-07T09:21:01.707Z,6.27
2017-08-07T09:23:29.438Z,2.80
2017-08-07T09:25:57.672Z,4.30
2017-08-07T09:28:25.150Z,2.97
2017-08-07T09:30:53.501Z,4.30
2017-08-07T09:33:21.761Z,3.03
2017-08-07T09:35:50.030Z,3.60
2017-08-07T09:38:18.482Z,3.00
2017-08-07T09:40:46.755Z,2.90
2017-08-07T09:43:15.010Z,3.17
2017-08-07T09:45:43.370Z,4.87
2017-08-07T09:48:11.599Z,2.60
2017-08-07T09:50:39.073Z,2.90
2017-08-07T09:53:07.546Z,3.00
2017-08-07T09:55:35.782Z,2.47
2017-08-07T09:58:04.118Z,3.50
2017-08-07T10:00:31.619Z,3.37
2017-08-07T10:02:59.091Z,2.90
2017-08-07T10:05:26.561Z,3.20
2017-08-07T10:07:54.334Z,3.80
2017-08-07T10:10:22.562Z,4.40
2017-08-07T10:12:50.042Z,3.03
2017-08-07T10:15:18.331Z,3.20
2017-08-07T10:17:46.058Z,3.63
2017-08-07T10:20:14.289Z,5.60
2017-08-07T10:22:41.755Z,4.60
2017-08-07T10:25:10.014Z,3.70
2017-08-07T10:27:38.274Z,3.60
2017-08-07T10:30:05.890Z,4.50
2017-08-07T10:32:33.570Z,4.60
2017-08-07T10:35:02.538Z,3.60
2017-08-07T10:37:30.809Z,3.33
2017-08-07T10:39:59.084Z,8.07
2017-08-07T10:42:26.617Z,4.00
2017-08-07T10:44:54.854Z,4.33
2017-08-07T10:47:22.522Z,4.10
2017-08-07T10:49:50.746Z,3.83
2017-08-07T10:52:18.271Z,4.33
2017-08-07T10:54:46.623Z,4.60
2017-08-07T10:57:14.118Z,7.50
2017-08-07T10:59:42.382Z,4.53
2017-08-07T11:02:10.626Z,6.43
2017-08-07T11:04:38.394Z,3.77
2017-08-07T11:07:06.623Z,5.57
2017-08-07T11:09:34.089Z,6.67
2017-08-07T11:12:01.578Z,4.47
2017-08-07T11:14:29.051Z,4.60
2017-08-07T11:16:56.630Z,4.53
2017-08-07T11:19:24.098Z,3.03
2017-08-07T11:21:51.554Z,5.07
2017-08-07T11:24:20.026Z,4.83
2017-08-07T11:26:48.282Z,4.30
2017-08-07T11:29:16.514Z,4.00
2017-08-07T11:31:44.191Z,3.73
2017-08-07T11:34:12.446Z,3.47
2017-08-07T11:36:40.675Z,3.30
2017-08-07T11:39:08.249Z,4.50
2017-08-07T11:41:36.502Z,3.80
2017-08-07T11:44:04.737Z,7.63
2017-08-07T11:46:32.328Z,5.03
2017-08-07T11:49:00.886Z,5.87
2017-08-07T11:51:29.151Z,5.50
2017-08-07T11:53:57.381Z,3.30
2017-08-07T11:56:24.947Z,5.10
2017-08-07T11:58:53.182Z,4.37
2017-08-07T12:01:20.655Z,3.90
2017-08-07T12:03:49.015Z,4.70
2017-08-07T12:06:17.242Z,3.07
2017-08-07T12:08:44.714Z,3.77
2017-08-07T12:11:12.966Z,5.67
2017-08-07T12:13:40.526Z,3.97
2017-08-07T12:16:08.749Z,3.83
2017-08-07T12:18:36.293Z,3.60
2017-08-07T12:21:03.758Z,5.03
2017-08-07T12:23:31.302Z,3.50
2017-08-07T12:25:58.890Z,6.37
2017-08-07T12:28:26.350Z,3.63
2017-08-07T12:30:53.816Z,7.80
2017-08-07T12:33:21.432Z,3.90
2017-08-07T12:35:48.935Z,4.00
2017-08-07T12:38:17.195Z,6.23
2017-08-07T12:40:45.658Z,4.33
2017-08-07T12:43:13.911Z,5.60
2017-08-07T12:45:42.170Z,3.80
2017-08-07T12:48:10.635Z,6.30
2017-08-07T12:50:38.900Z,4.30
2017-08-07T12:53:07.158Z,5.87
2017-08-07T12:55:35.435Z,11.97
2017-08-07T12:58:02.898Z,5.20
2017-08-07T13:00:30.367Z,3.40
2017-08-07T13:02:57.849Z,6.57
2017-08-07T13:05:25.387Z,4.30
2017-08-07T13:07:53.853Z,4.93
2017-08-07T13:10:22.082Z,3.97
2017-08-07T13:12:49.543Z,4.07
2017-08-07T13:15:17.815Z,3.47
2017-08-07T13:17:46.049Z,4.03
2017-08-07T13:20:13.715Z,5.13
2017-08-07T13:22:41.958Z,6.90
2017-08-07T13:25:09.522Z,9.27
2017-08-07T13:27:37.766Z,5.70
2017-08-07T13:30:05.262Z,4.50
2017-08-07T13:32:32.734Z,4.77
2017-08-07T13:35:00.196Z,4.90
2017-08-07T13:37:28.570Z,4.93
2017-08-07T13:39:56.835Z,3.87
2017-08-07T13:42:24.370Z,4.03
2017-08-07T13:44:52.634Z,3.90
2017-08-07T13:47:20.917Z,4.53
2017-08-07T13:49:48.378Z,4.23
2017-08-07T13:52:16.082Z,4.57
2017-08-07T13:54:44.346Z,4.87
2017-08-07T13:57:11.887Z,3.50
2017-08-07T13:59:39.378Z,3.90
2017-08-07T14:02:06.874Z,4.23
2017-08-07T14:04:34.414Z,4.00
2017-08-07T14:07:02.783Z,6.13
2017-08-07T14:09:31.014Z,3.10
2017-08-07T14:11:59.243Z,3.53
2017-08-07T14:14:26.908Z,3.57
2017-08-07T14:16:54.441Z,5.10
2017-08-07T14:19:21.910Z,4.07
2017-08-07T14:21:49.397Z,3.40
2017-08-07T14:24:16.886Z,4.20
2017-08-07T14:26:45.137Z,3.90
2017-08-07T14:29:12.687Z,3.30
2017-08-07T14:31:41.142Z,3.60
2017-08-07T14:34:09.410Z,7.67
2017-08-07T14:36:37.646Z,4.40
2017-08-07T14:39:05.343Z,3.40
2017-08-07T14:41:32.794Z,3.53
2017-08-07T14:44:00.302Z,3.93
2017-08-07T14:46:27.815Z,4.67
2017-08-07T14:48:55.286Z,4.07
2017-08-07T14:51:23.546Z,4.03
2017-08-07T14:53:51.902Z,3.20
2017-08-07T14:56:20.170Z,3.90
2017-08-07T14:58:48.403Z,4.43
2017-08-07T15:01:16.070Z,2.93
2017-08-07T15:03:44.531Z,2.97
2017-08-07T15:06:12.763Z,3.37
2017-08-07T15:08:40.337Z,3.43
2017-08-07T15:11:08.566Z,3.50
2017-08-07T15:13:36.039Z,3.77
2017-08-07T15:16:03.650Z,3.40
2017-08-07T15:18:31.126Z,3.50
2017-08-07T15:20:58.595Z,3.80
2017-08-07T15:23:26.171Z,3.60
2017-08-07T15:25:53.711Z,3.50
2017-08-07T15:28:22.074Z,3.37
2017-08-07T15:30:50.334Z,5.40
2017-08-07T15:33:18.600Z,2.67
2017-08-07T15:35:47.046Z,2.70
2017-08-07T15:38:15.284Z,3.10
2017-08-07T15:40:42.742Z,3.83
2017-08-07T15:43:10.298Z,5.27
2017-08-07T15:45:38.574Z,3.53
2017-08-07T15:48:06.121Z,2.93
2017-08-07T15:50:33.649Z,3.37
2017-08-07T15:53:01.915Z,3.17
2017-08-07T15:55:30.148Z,3.80
2017-08-07T15:57:57.634Z,3.27
2017-08-07T16:00:25.158Z,4.97
2017-08-07T16:02:53.418Z,3.50
2017-08-07T16:05:21.895Z,2.93
2017-08-07T16:07:49.431Z,3.10
2017-08-07T16:10:17.690Z,3.37
2017-08-07T16:12:45.211Z,4.57
2017-08-07T16:15:13.443Z,4.13
2017-08-07T16:17:40.921Z,3.07
2017-08-07T16:20:08.512Z,3.30
2017-08-07T16:22:35.990Z,2.67
2017-08-07T16:25:04.257Z,4.10
2017-08-07T16:27:32.519Z,5.67
2017-08-07T16:30:01.572Z,3.30
2017-08-07T16:32:29.144Z,3.70
2017-08-07T16:34:57.446Z,2.80
2017-08-07T16:37:24.943Z,3.53
2017-08-07T16:39:53.302Z,3.73
2017-08-07T16:42:21.611Z,3.63
2017-08-07T16:44:49.151Z,3.10
2017-08-07T16:47:16.642Z,3.40
2017-08-07T16:49:44.198Z,3.50
2017-08-07T16:52:12.454Z,3.47
2017-08-07T16:54:40.922Z,3.40
2017-08-07T16:57:09.147Z,3.13
2017-08-07T16:59:36.616Z,3.60
2017-08-07T17:02:04.378Z,3.47
2017-08-07T17:04:31.927Z,2.63
2017-08-07T17:06:59.454Z,3.10
2017-08-07T17:09:27.007Z,3.70
2017-08-07T17:11:54.762Z,2.87
2017-08-07T17:14:22.231Z,2.90
2017-08-07T17:16:49.929Z,3.93
2017-08-07T17:19:17.466Z,4.73
2017-08-07T17:21:45.730Z,4.33
2017-08-07T17:24:13.983Z,7.00
2017-08-07T17:26:42.246Z,3.43
2017-08-07T17:29:10.518Z,3.00
2017-08-07T17:31:38.054Z,3.23
2017-08-07T17:34:05.553Z,4.43
2017-08-07T17:36:33.142Z,5.23
2017-08-07T17:39:01.402Z,3.30
2017-08-07T17:41:29.759Z,4.20
2017-08-07T17:43:57.999Z,4.57
2017-08-07T17:46:25.473Z,4.20
2017-08-07T17:48:53.218Z,3.43
2017-08-07T17:51:21.516Z,5.07
2017-08-07T17:53:49.013Z,5.60
2017-08-07T17:56:17.379Z,3.50
2017-08-07T17:58:45.611Z,3.40
2017-08-07T18:01:13.066Z,3.47
2017-08-07T18:03:41.350Z,3.50
2017-08-07T18:06:08.826Z,3.70
2017-08-07T18:08:36.323Z,5.00
2017-08-07T18:11:04.766Z,5.60
2017-08-07T18:13:32.266Z,5.00
2017-08-07T18:16:00.500Z,3.80
2017-08-07T18:18:28.170Z,8.10
2017-08-07T18:20:56.434Z,5.93
2017-08-07T18:23:24.662Z,4.27
2017-08-07T18:25:52.230Z,4.30
2017-08-07T18:28:20.499Z,5.10
2017-08-07T18:30:48.754Z,3.83
2017-08-07T18:33:17.226Z,4.10
2017-08-07T18:35:45.450Z,6.67
2017-08-07T18:38:12.914Z,4.30
2017-08-07T18:40:41.282Z,4.03
2017-08-07T18:43:09.520Z,4.30
2017-08-07T18:45:36.985Z,4.43
2017-08-07T18:48:05.322Z,4.83
2017-08-07T18:50:32.894Z,5.30
2017-08-07T18:53:01.153Z,3.83
2017-08-07T18:55:29.619Z,4.30
2017-08-07T18:57:57.855Z,4.10
2017-08-07T19:00:25.314Z,8.30
2017-08-07T19:02:53.558Z,4.33
2017-08-07T19:05:21.243Z,4.40
2017-08-07T19:07:48.770Z,4.73
2017-08-07T19:10:17.026Z,4.50
2017-08-07T19:12:44.730Z,5.00
2017-08-07T19:15:12.995Z,4.60
2017-08-07T19:17:41.223Z,6.67
2017-08-07T19:20:08.790Z,4.60
2017-08-07T19:22:37.054Z,4.17
2017-08-07T19:25:05.286Z,4.93
2017-08-07T19:27:32.953Z,4.70
2017-08-07T19:30:01.187Z,4.00
2017-08-07T19:32:28.646Z,7.40
2017-08-07T19:34:56.890Z,6.47
2017-08-07T19:37:24.462Z,5.03
2017-08-07T19:39:52.723Z,6.33
2017-08-07T19:42:21.063Z,4.80
2017-08-07T19:44:48.525Z,8.37
2017-08-07T19:47:16.797Z,5.30
2017-08-07T19:49:44.335Z,4.80
2017-08-07T19:52:12.600Z,4.30
2017-08-07T19:54:40.144Z,5.43
2017-08-07T19:57:07.619Z,5.00
2017-08-07T19:59:35.114Z,4.40
2017-08-07T20:02:03.353Z,5.80
2017-08-07T20:04:30.819Z,7.13
2017-08-07T20:06:59.089Z,5.83
2017-08-07T20:09:26.559Z,7.60
2017-08-07T20:11:54.122Z,7.70
2017-08-07T20:14:22.398Z,5.10
2017-08-07T20:16:49.865Z,5.53
2017-08-07T20:19:17.334Z,6.30
2017-08-07T20:21:44.843Z,5.40
2017-08-07T20:24:12.306Z,5.40
2017-08-07T20:26:39.795Z,7.23
2017-08-07T20:29:08.154Z,8.37
2017-08-07T20:31:36.386Z,9.83
2017-08-07T20:34:03.970Z,5.13
2017-08-07T20:36:31.588Z,7.43
2017-08-07T20:38:59.046Z,8.83
2017-08-07T20:41:27.419Z,5.80
2017-08-07T20:43:55.169Z,9.13
2017-08-07T20:46:22.697Z,6.73
2017-08-07T20:48:50.953Z,5.90
2017-08-07T20:51:19.229Z,7.90
2017-08-07T20:53:46.695Z,6.07
2017-08-07T20:56:14.198Z,6.43
2017-08-07T20:58:42.566Z,6.57
2017-08-07T21:01:10.821Z,7.30
2017-08-07T21:03:39.055Z,6.03
2017-08-07T21:06:06.697Z,7.60
2017-08-07T21:08:34.178Z,8.80
2017-08-07T21:11:02.601Z,12.43
2017-08-07T21:13:30.196Z,5.97
2017-08-07T21:15:58.437Z,7.60
2017-08-07T21:18:25.898Z,6.23
2017-08-07T21:20:54.358Z,10.73
2017-08-07T21:23:22.588Z,9.70
2017-08-07T21:25:50.056Z,6.03
2017-08-07T21:28:18.299Z,7.43
2017-08-07T21:30:45.767Z,9.10
2017-08-07T21:33:14.230Z,11.10
2017-08-07T21:35:42.495Z,7.60
2017-08-07T21:38:10.735Z,8.43
2017-08-07T21:40:38.310Z,10.30
2017-08-07T21:43:05.845Z,8.53
2017-08-07T21:45:34.089Z,8.13
2017-08-07T21:48:02.562Z,10.30
2017-08-07T21:50:30.793Z,11.13
2017-08-07T21:52:58.370Z,15.37
2017-08-07T21:55:26.819Z,9.80
2017-08-07T21:57:54.382Z,9.90
2017-08-07T22:00:22.605Z,9.60
2017-08-07T22:02:50.179Z,9.53
2017-08-07T22:05:18.446Z,10.80
2017-08-07T22:07:45.988Z,10.23
2017-08-07T22:10:14.218Z,12.10
2017-08-07T22:12:42.502Z,12.50
2017-08-07T22:15:11.037Z,11.23
2017-08-07T22:17:39.274Z,10.53
2017-08-07T22:20:06.847Z,7.43
2017-08-07T22:22:35.107Z,8.47
2017-08-07T22:25:03.343Z,7.73
2017-08-07T22:27:31.718Z,7.00
2017-08-07T22:29:59.981Z,10.97
2017-08-07T22:32:28.218Z,7.20
2017-08-07T22:34:55.786Z,8.13
2017-08-07T22:37:24.027Z,8.60
2017-08-07T22:39:51.494Z,11.07
2017-08-07T22:42:19.950Z,8.33
2017-08-07T22:44:48.209Z,15.50
2017-08-07T22:47:16.474Z,9.43
2017-08-07T22:49:44.747Z,9.37
2017-08-07T22:52:12.222Z,8.87
2017-08-07T22:54:39.726Z,7.80
2017-08-07T22:57:07.266Z,9.27
2017-08-07T22:59:35.522Z,9.40
2017-08-07T23:02:03.773Z,10.63
2017-08-07T23:04:32.038Z,9.00
2017-08-07T23:07:00.305Z,10.20
2017-08-07T23:09:28.565Z,7.80
2017-08-07T23:11:57.054Z,6.73
2017-08-07T23:14:24.569Z,6.97
2017-08-07T23:16:53.117Z,7.10
2017-08-07T23:19:20.681Z,8.97
2017-08-07T23:21:48.949Z,9.10
2017-08-07T23:24:17.439Z,6.73
2017-08-07T23:26:44.911Z,7.60
2017-08-07T23:29:12.394Z,13.07
2017-08-07T23:31:40.753Z,7.37
2017-08-07T23:34:09.022Z,6.63
2017-08-07T23:36:37.243Z,6.97
2017-08-07T23:39:04.922Z,7.50
2017-08-07T23:41:33.155Z,7.50
2017-08-07T23:44:01.501Z,8.33
2017-08-07T23:46:28.985Z,8.30
2017-08-07T23:48:57.249Z,7.20
2017-08-07T23:51:24.946Z,7.40
2017-08-07T23:53:53.278Z,9.53
2017-08-07T23:56:20.746Z,8.23
2017-08-07T23:58:49.010Z,8.50
